sensor_id;sensor_type;location;lat;lon;timestamp;P1;durP1;ratioP1;P2;durP2;ratioP2
8584;SDS011;7180;52.742;11.420;2023-06-14T00:00:45;9.77;;;9.10;;
8584;SDS011;7180;52.742;11.420;2023-06-14T00:03:11;9.97;;;9.37;;
8584;SDS011;7180;52.742;11.420;2023-06-14T00:05:37;10.07;;;9.27;;
8584;SDS011;7180;52.742;11.420;2023-06-14T00:08:08;10.17;;;9.57;;
8584;SDS011;7180;52.742;11.420;2023-06-14T00:10:35;10.40;;;9.63;;
8584;SDS011;7180;52.742;11.420;2023-06-14T00:13:01;9.93;;;9.23;;
8584;SDS011;7180;52.742;11.420;2023-06-14T00:15:27;9.30;;;8.70;;
8584;SDS011;7180;52.742;11.420;2023-06-14T00:17:53;9.13;;;8.53;;
8584;SDS011;7180;52.742;11.420;2023-06-14T00:20:19;9.40;;;8.80;;
8584;SDS011;7180;52.742;11.420;2023-06-14T00:22:45;9.53;;;8.87;;
8584;SDS011;7180;52.742;11.420;2023-06-14T00:25:11;9.50;;;9.00;;
8584;SDS011;7180;52.742;11.420;2023-06-14T00:27:36;9.60;;;9.00;;
8584;SDS011;7180;52.742;11.420;2023-06-14T00:30:02;9.40;;;8.90;;
8584;SDS011;7180;52.742;11.420;2023-06-14T00:32:27;9.50;;;8.90;;
8584;SDS011;7180;52.742;11.420;2023-06-14T00:34:52;9.70;;;8.90;;
8584;SDS011;7180;52.742;11.420;2023-06-14T00:37:18;10.10;;;9.40;;
8584;SDS011;7180;52.742;11.420;2023-06-14T00:39:43;9.60;;;9.07;;
8584;SDS011;7180;52.742;11.420;2023-06-14T00:42:09;9.63;;;9.10;;
8584;SDS011;7180;52.742;11.420;2023-06-14T00:44:35;9.40;;;8.83;;
8584;SDS011;7180;52.742;11.420;2023-06-14T00:47:00;9.73;;;9.00;;
8584;SDS011;7180;52.742;11.420;2023-06-14T00:49:25;9.73;;;9.00;;
8584;SDS011;7180;52.742;11.420;2023-06-14T00:51:50;9.80;;;9.30;;
8584;SDS011;7180;52.742;11.420;2023-06-14T00:54:16;9.53;;;8.93;;
8584;SDS011;7180;52.742;11.420;2023-06-14T00:56:41;9.60;;;8.97;;
8584;SDS011;7180;52.742;11.420;2023-06-14T00:59:08;9.80;;;9.10;;
8584;SDS011;7180;52.742;11.420;2023-06-14T01:01:36;9.30;;;8.70;;
8584;SDS011;7180;52.742;11.420;2023-06-14T01:04:02;9.20;;;8.50;;
8584;SDS011;7180;52.742;11.420;2023-06-14T01:06:33;9.90;;;9.20;;
8584;SDS011;7180;52.742;11.420;2023-06-14T01:11:47;9.63;;;9.03;;
8584;SDS011;7180;52.742;11.420;2023-06-14T01:14:19;9.57;;;9.07;;
8584;SDS011;7180;52.742;11.420;2023-06-14T01:16:46;9.87;;;9.27;;
8584;SDS011;7180;52.742;11.420;2023-06-14T01:19:12;8.90;;;8.40;;
8584;SDS011;7180;52.742;11.420;2023-06-14T01:21:39;9.43;;;8.80;;
8584;SDS011;7180;52.742;11.420;2023-06-14T01:24:07;9.73;;;9.13;;
8584;SDS011;7180;52.742;11.420;2023-06-14T01:26:33;9.97;;;9.27;;
8584;SDS011;7180;52.742;11.420;2023-06-14T01:29:00;9.97;;;9.27;;
8584;SDS011;7180;52.742;11.420;2023-06-14T01:31:26;9.50;;;9.00;;
8584;SDS011;7180;52.742;11.420;2023-06-14T01:33:52;9.50;;;8.80;;
8584;SDS011;7180;52.742;11.420;2023-06-14T01:36:21;9.63;;;9.03;;
8584;SDS011;7180;52.742;11.420;2023-06-14T01:38:48;9.73;;;9.10;;
8584;SDS011;7180;52.742;11.420;2023-06-14T01:41:15;9.83;;;9.23;;
8584;SDS011;7180;52.742;11.420;2023-06-14T01:43:42;9.67;;;9.10;;
8584;SDS011;7180;52.742;11.420;2023-06-14T01:46:08;10.13;;;9.43;;
8584;SDS011;7180;52.742;11.420;2023-06-14T01:48:34;9.50;;;9.00;;
8584;SDS011;7180;52.742;11.420;2023-06-14T01:51:00;9.03;;;8.53;;
8584;SDS011;7180;52.742;11.420;2023-06-14T01:53:25;9.77;;;9.17;;
8584;SDS011;7180;52.742;11.420;2023-06-14T01:55:50;9.73;;;9.13;;
8584;SDS011;7180;52.742;11.420;2023-06-14T01:58:18;9.83;;;9.33;;
8584;SDS011;7180;52.742;11.420;2023-06-14T02:00:44;10.23;;;9.53;;
8584;SDS011;7180;52.742;11.420;2023-06-14T02:03:10;9.70;;;9.13;;
8584;SDS011;7180;52.742;11.420;2023-06-14T02:05:36;9.87;;;9.17;;
8584;SDS011;7180;52.742;11.420;2023-06-14T02:08:03;9.37;;;8.87;;
8584;SDS011;7180;52.742;11.420;2023-06-14T02:10:29;10.67;;;9.90;;
8584;SDS011;7180;52.742;11.420;2023-06-14T02:12:54;10.23;;;9.60;;
8584;SDS011;7180;52.742;11.420;2023-06-14T02:15:19;9.90;;;9.23;;
8584;SDS011;7180;52.742;11.420;2023-06-14T02:17:46;10.03;;;9.33;;
8584;SDS011;7180;52.742;11.420;2023-06-14T02:20:12;9.90;;;9.20;;
8584;SDS011;7180;52.742;11.420;2023-06-14T02:22:38;9.33;;;8.83;;
8584;SDS011;7180;52.742;11.420;2023-06-14T02:25:04;9.83;;;9.27;;
8584;SDS011;7180;52.742;11.420;2023-06-14T02:27:30;9.73;;;9.17;;
8584;SDS011;7180;52.742;11.420;2023-06-14T02:29:55;9.70;;;9.00;;
8584;SDS011;7180;52.742;11.420;2023-06-14T02:32:21;9.83;;;9.23;;
8584;SDS011;7180;52.742;11.420;2023-06-14T02:34:46;9.30;;;8.80;;
8584;SDS011;7180;52.742;11.420;2023-06-14T02:37:14;9.60;;;8.97;;
8584;SDS011;7180;52.742;11.420;2023-06-14T02:39:40;10.33;;;9.73;;
8584;SDS011;7180;52.742;11.420;2023-06-14T02:42:05;10.73;;;10.03;;
8584;SDS011;7180;52.742;11.420;2023-06-14T02:44:31;10.60;;;10.00;;
8584;SDS011;7180;52.742;11.420;2023-06-14T02:46:57;10.60;;;9.93;;
8584;SDS011;7180;52.742;11.420;2023-06-14T02:49:23;10.43;;;9.73;;
8584;SDS011;7180;52.742;11.420;2023-06-14T02:51:49;10.60;;;10.00;;
8584;SDS011;7180;52.742;11.420;2023-06-14T02:54:14;10.70;;;10.10;;
8584;SDS011;7180;52.742;11.420;2023-06-14T02:56:39;11.10;;;10.40;;
8584;SDS011;7180;52.742;11.420;2023-06-14T02:59:05;11.03;;;10.33;;
8584;SDS011;7180;52.742;11.420;2023-06-14T03:01:32;11.20;;;10.40;;
8584;SDS011;7180;52.742;11.420;2023-06-14T03:04:06;11.37;;;10.67;;
8584;SDS011;7180;52.742;11.420;2023-06-14T03:06:34;10.30;;;9.70;;
8584;SDS011;7180;52.742;11.420;2023-06-14T03:09:00;10.37;;;9.77;;
8584;SDS011;7180;52.742;11.420;2023-06-14T03:11:29;10.47;;;9.57;;
8584;SDS011;7180;52.742;11.420;2023-06-14T03:13:54;10.17;;;9.57;;
8584;SDS011;7180;52.742;11.420;2023-06-14T03:16:21;9.90;;;9.30;;
8584;SDS011;7180;52.742;11.420;2023-06-14T03:18:49;10.03;;;9.43;;
8584;SDS011;7180;52.742;11.420;2023-06-14T03:21:15;9.80;;;9.13;;
8584;SDS011;7180;52.742;11.420;2023-06-14T03:23:42;9.43;;;8.93;;
8584;SDS011;7180;52.742;11.420;2023-06-14T03:26:07;10.20;;;9.40;;
8584;SDS011;7180;52.742;11.420;2023-06-14T03:28:33;10.20;;;9.60;;
8584;SDS011;7180;52.742;11.420;2023-06-14T03:30:58;10.27;;;9.57;;
8584;SDS011;7180;52.742;11.420;2023-06-14T03:33:24;10.63;;;9.93;;
8584;SDS011;7180;52.742;11.420;2023-06-14T03:35:50;10.03;;;9.33;;
8584;SDS011;7180;52.742;11.420;2023-06-14T03:38:15;10.20;;;9.57;;
8584;SDS011;7180;52.742;11.420;2023-06-14T03:40:41;10.07;;;9.47;;
8584;SDS011;7180;52.742;11.420;2023-06-14T03:43:06;10.27;;;9.47;;
8584;SDS011;7180;52.742;11.420;2023-06-14T03:45:31;10.10;;;9.47;;
8584;SDS011;7180;52.742;11.420;2023-06-14T03:47:56;9.80;;;9.20;;
8584;SDS011;7180;52.742;11.420;2023-06-14T03:50:22;10.10;;;9.50;;
8584;SDS011;7180;52.742;11.420;2023-06-14T03:52:48;9.83;;;9.33;;
8584;SDS011;7180;52.742;11.420;2023-06-14T03:55:13;9.87;;;9.30;;
8584;SDS011;7180;52.742;11.420;2023-06-14T03:57:41;9.63;;;9.13;;
8584;SDS011;7180;52.742;11.420;2023-06-14T04:00:07;9.80;;;9.10;;
8584;SDS011;7180;52.742;11.420;2023-06-14T04:02:34;9.20;;;8.70;;
8584;SDS011;7180;52.742;11.420;2023-06-14T04:04:59;9.90;;;9.30;;
8584;SDS011;7180;52.742;11.420;2023-06-14T04:07:25;10.20;;;9.60;;
8584;SDS011;7180;52.742;11.420;2023-06-14T04:09:53;9.63;;;9.00;;
8584;SDS011;7180;52.742;11.420;2023-06-14T04:12:19;10.10;;;9.50;;
8584;SDS011;7180;52.742;11.420;2023-06-14T04:14:44;9.57;;;8.97;;
8584;SDS011;7180;52.742;11.420;2023-06-14T04:17:09;8.93;;;8.43;;
8584;SDS011;7180;52.742;11.420;2023-06-14T04:19:34;9.40;;;8.77;;
8584;SDS011;7180;52.742;11.420;2023-06-14T04:22:00;9.33;;;8.73;;
8584;SDS011;7180;52.742;11.420;2023-06-14T04:24:27;9.33;;;8.83;;
8584;SDS011;7180;52.742;11.420;2023-06-14T04:26:56;9.20;;;8.70;;
8584;SDS011;7180;52.742;11.420;2023-06-14T04:29:23;9.50;;;8.87;;
8584;SDS011;7180;52.742;11.420;2023-06-14T04:31:49;9.50;;;8.90;;
8584;SDS011;7180;52.742;11.420;2023-06-14T04:34:14;10.07;;;9.47;;
8584;SDS011;7180;52.742;11.420;2023-06-14T04:36:42;9.93;;;9.33;;
8584;SDS011;7180;52.742;11.420;2023-06-14T04:39:17;10.13;;;9.53;;
8584;SDS011;7180;52.742;11.420;2023-06-14T04:41:43;10.30;;;9.60;;
8584;SDS011;7180;52.742;11.420;2023-06-14T04:44:08;10.00;;;9.40;;
8584;SDS011;7180;52.742;11.420;2023-06-14T04:46:35;10.63;;;9.97;;
8584;SDS011;7180;52.742;11.420;2023-06-14T04:49:09;10.20;;;9.60;;
8584;SDS011;7180;52.742;11.420;2023-06-14T04:51:34;10.23;;;9.63;;
8584;SDS011;7180;52.742;11.420;2023-06-14T04:53:59;10.10;;;9.50;;
8584;SDS011;7180;52.742;11.420;2023-06-14T04:56:26;9.93;;;9.40;;
8584;SDS011;7180;52.742;11.420;2023-06-14T04:58:51;9.93;;;9.33;;
8584;SDS011;7180;52.742;11.420;2023-06-14T05:01:18;10.33;;;9.57;;
8584;SDS011;7180;52.742;11.420;2023-06-14T05:03:43;9.90;;;9.40;;
8584;SDS011;7180;52.742;11.420;2023-06-14T05:06:10;10.90;;;10.30;;
8584;SDS011;7180;52.742;11.420;2023-06-14T05:08:36;11.00;;;10.40;;
8584;SDS011;7180;52.742;11.420;2023-06-14T05:11:01;10.83;;;10.10;;
8584;SDS011;7180;52.742;11.420;2023-06-14T05:13:27;10.63;;;10.03;;
8584;SDS011;7180;52.742;11.420;2023-06-14T05:15:52;10.87;;;9.90;;
8584;SDS011;7180;52.742;11.420;2023-06-14T05:18:18;10.67;;;9.97;;
8584;SDS011;7180;52.742;11.420;2023-06-14T05:20:43;10.00;;;9.40;;
8584;SDS011;7180;52.742;11.420;2023-06-14T05:23:09;9.90;;;9.40;;
8584;SDS011;7180;52.742;11.420;2023-06-14T05:25:39;9.50;;;9.00;;
8584;SDS011;7180;52.742;11.420;2023-06-14T05:28:06;9.40;;;8.90;;
8584;SDS011;7180;52.742;11.420;2023-06-14T05:30:31;10.20;;;9.60;;
8584;SDS011;7180;52.742;11.420;2023-06-14T05:32:58;9.65;;;9.15;;
8584;SDS011;7180;52.742;11.420;2023-06-14T05:35:23;9.83;;;9.33;;
8584;SDS011;7180;52.742;11.420;2023-06-14T05:37:51;10.07;;;9.57;;
8584;SDS011;7180;52.742;11.420;2023-06-14T05:40:16;9.90;;;9.20;;
8584;SDS011;7180;52.742;11.420;2023-06-14T05:42:42;9.57;;;8.97;;
8584;SDS011;7180;52.742;11.420;2023-06-14T05:45:07;9.70;;;9.20;;
8584;SDS011;7180;52.742;11.420;2023-06-14T05:47:33;9.70;;;9.20;;
8584;SDS011;7180;52.742;11.420;2023-06-14T05:49:58;10.68;;;9.85;;
8584;SDS011;7180;52.742;11.420;2023-06-14T05:52:23;10.65;;;9.95;;
8584;SDS011;7180;52.742;11.420;2023-06-14T05:54:49;10.10;;;9.50;;
8584;SDS011;7180;52.742;11.420;2023-06-14T05:57:14;10.27;;;9.67;;
8584;SDS011;7180;52.742;11.420;2023-06-14T05:59:39;10.50;;;9.90;;
8584;SDS011;7180;52.742;11.420;2023-06-14T06:02:05;10.53;;;9.73;;
8584;SDS011;7180;52.742;11.420;2023-06-14T06:04:30;11.63;;;10.80;;
8584;SDS011;7180;52.742;11.420;2023-06-14T06:06:55;11.45;;;10.65;;
8584;SDS011;7180;52.742;11.420;2023-06-14T06:09:21;11.40;;;10.70;;
8584;SDS011;7180;52.742;11.420;2023-06-14T06:11:46;10.38;;;9.77;;
8584;SDS011;7180;52.742;11.420;2023-06-14T06:14:11;11.02;;;10.43;;
8584;SDS011;7180;52.742;11.420;2023-06-14T06:16:36;10.98;;;10.30;;
8584;SDS011;7180;52.742;11.420;2023-06-14T06:19:02;10.70;;;10.10;;
8584;SDS011;7180;52.742;11.420;2023-06-14T06:21:27;10.85;;;10.25;;
8584;SDS011;7180;52.742;11.420;2023-06-14T06:23:52;10.43;;;9.73;;
8584;SDS011;7180;52.742;11.420;2023-06-14T06:26:19;10.70;;;10.10;;
8584;SDS011;7180;52.742;11.420;2023-06-14T06:28:45;10.93;;;10.32;;
8584;SDS011;7180;52.742;11.420;2023-06-14T06:31:10;10.60;;;10.00;;
8584;SDS011;7180;52.742;11.420;2023-06-14T06:33:36;10.23;;;9.70;;
8584;SDS011;7180;52.742;11.420;2023-06-14T06:36:01;10.73;;;10.10;;
8584;SDS011;7180;52.742;11.420;2023-06-14T06:38:27;11.10;;;10.40;;
8584;SDS011;7180;52.742;11.420;2023-06-14T06:40:52;11.25;;;10.55;;
8584;SDS011;7180;52.742;11.420;2023-06-14T06:43:19;10.60;;;9.98;;
8584;SDS011;7180;52.742;11.420;2023-06-14T06:45:44;10.80;;;10.10;;
8584;SDS011;7180;52.742;11.420;2023-06-14T06:48:10;11.25;;;10.55;;
8584;SDS011;7180;52.742;11.420;2023-06-14T06:50:36;10.95;;;10.35;;
8584;SDS011;7180;52.742;11.420;2023-06-14T06:53:01;10.48;;;9.77;;
8584;SDS011;7180;52.742;11.420;2023-06-14T06:55:27;10.80;;;10.20;;
8584;SDS011;7180;52.742;11.420;2023-06-14T06:57:52;11.38;;;10.52;;
8584;SDS011;7180;52.742;11.420;2023-06-14T07:00:18;11.00;;;10.30;;
8584;SDS011;7180;52.742;11.420;2023-06-14T07:02:44;10.80;;;10.10;;
8584;SDS011;7180;52.742;11.420;2023-06-14T07:05:10;10.75;;;10.15;;
8584;SDS011;7180;52.742;11.420;2023-06-14T07:07:35;10.43;;;9.82;;
8584;SDS011;7180;52.742;11.420;2023-06-14T07:10:01;11.55;;;10.60;;
8584;SDS011;7180;52.742;11.420;2023-06-14T07:12:29;11.13;;;10.30;;
8584;SDS011;7180;52.742;11.420;2023-06-14T07:14:55;10.90;;;10.10;;
8584;SDS011;7180;52.742;11.420;2023-06-14T07:17:20;10.48;;;9.88;;
8584;SDS011;7180;52.742;11.420;2023-06-14T07:19:45;10.52;;;9.93;;
8584;SDS011;7180;52.742;11.420;2023-06-14T07:22:11;10.75;;;10.05;;
8584;SDS011;7180;52.742;11.420;2023-06-14T07:24:36;10.50;;;9.85;;
8584;SDS011;7180;52.742;11.420;2023-06-14T07:27:01;11.05;;;10.38;;
8584;SDS011;7180;52.742;11.420;2023-06-14T07:29:28;11.25;;;10.55;;
8584;SDS011;7180;52.742;11.420;2023-06-14T07:31:53;10.80;;;10.15;;
8584;SDS011;7180;52.742;11.420;2023-06-14T07:34:18;10.63;;;10.02;;
8584;SDS011;7180;52.742;11.420;2023-06-14T07:36:43;11.00;;;10.40;;
8584;SDS011;7180;52.742;11.420;2023-06-14T07:39:09;11.15;;;10.45;;
8584;SDS011;7180;52.742;11.420;2023-06-14T07:41:35;11.07;;;10.38;;
8584;SDS011;7180;52.742;11.420;2023-06-14T07:44:00;11.57;;;10.88;;
8584;SDS011;7180;52.742;11.420;2023-06-14T07:46:25;11.95;;;11.20;;
8584;SDS011;7180;52.742;11.420;2023-06-14T07:48:51;11.50;;;10.80;;
8584;SDS011;7180;52.742;11.420;2023-06-14T07:51:16;12.00;;;11.30;;
8584;SDS011;7180;52.742;11.420;2023-06-14T07:53:41;11.70;;;10.97;;
8584;SDS011;7180;52.742;11.420;2023-06-14T07:56:07;11.37;;;10.67;;
8584;SDS011;7180;52.742;11.420;2023-06-14T07:58:32;11.90;;;11.10;;
8584;SDS011;7180;52.742;11.420;2023-06-14T08:00:57;11.80;;;11.10;;
8584;SDS011;7180;52.742;11.420;2023-06-14T08:03:23;11.77;;;11.03;;
8584;SDS011;7180;52.742;11.420;2023-06-14T08:05:49;10.83;;;10.23;;
8584;SDS011;7180;52.742;11.420;2023-06-14T08:08:14;11.20;;;10.50;;
8584;SDS011;7180;52.742;11.420;2023-06-14T08:10:39;11.50;;;10.80;;
8584;SDS011;7180;52.742;11.420;2023-06-14T08:13:05;11.23;;;10.60;;
8584;SDS011;7180;52.742;11.420;2023-06-14T08:15:30;10.83;;;10.23;;
8584;SDS011;7180;52.742;11.420;2023-06-14T08:17:56;10.60;;;10.00;;
8584;SDS011;7180;52.742;11.420;2023-06-14T08:20:21;10.40;;;9.80;;
8584;SDS011;7180;52.742;11.420;2023-06-14T08:22:46;10.90;;;10.30;;
8584;SDS011;7180;52.742;11.420;2023-06-14T08:25:13;11.20;;;10.50;;
8584;SDS011;7180;52.742;11.420;2023-06-14T08:27:38;10.93;;;10.23;;
8584;SDS011;7180;52.742;11.420;2023-06-14T08:30:03;11.10;;;10.37;;
8584;SDS011;7180;52.742;11.420;2023-06-14T08:32:29;11.30;;;10.50;;
8584;SDS011;7180;52.742;11.420;2023-06-14T08:34:54;10.70;;;10.07;;
8584;SDS011;7180;52.742;11.420;2023-06-14T08:37:20;11.17;;;10.30;;
8584;SDS011;7180;52.742;11.420;2023-06-14T08:39:45;10.90;;;10.13;;
8584;SDS011;7180;52.742;11.420;2023-06-14T08:42:11;10.83;;;10.13;;
8584;SDS011;7180;52.742;11.420;2023-06-14T08:44:39;10.20;;;9.70;;
8584;SDS011;7180;52.742;11.420;2023-06-14T08:47:04;11.03;;;10.20;;
8584;SDS011;7180;52.742;11.420;2023-06-14T08:49:32;10.60;;;9.90;;
8584;SDS011;7180;52.742;11.420;2023-06-14T08:51:57;11.10;;;10.40;;
8584;SDS011;7180;52.742;11.420;2023-06-14T08:54:30;10.70;;;10.10;;
8584;SDS011;7180;52.742;11.420;2023-06-14T08:56:56;10.50;;;9.80;;
8584;SDS011;7180;52.742;11.420;2023-06-14T08:59:31;10.57;;;9.97;;
8584;SDS011;7180;52.742;11.420;2023-06-14T09:02:03;10.83;;;10.13;;
8584;SDS011;7180;52.742;11.420;2023-06-14T09:04:30;10.60;;;9.90;;
8584;SDS011;7180;52.742;11.420;2023-06-14T09:06:57;10.47;;;9.87;;
8584;SDS011;7180;52.742;11.420;2023-06-14T09:09:23;10.50;;;9.90;;
8584;SDS011;7180;52.742;11.420;2023-06-14T09:11:52;10.57;;;9.87;;
8584;SDS011;7180;52.742;11.420;2023-06-14T09:14:18;10.90;;;10.30;;
8584;SDS011;7180;52.742;11.420;2023-06-14T09:16:44;11.23;;;10.53;;
8584;SDS011;7180;52.742;11.420;2023-06-14T09:19:13;11.60;;;10.80;;
8584;SDS011;7180;52.742;11.420;2023-06-14T09:21:47;11.17;;;10.57;;
8584;SDS011;7180;52.742;11.420;2023-06-14T09:24:13;12.07;;;11.27;;
8584;SDS011;7180;52.742;11.420;2023-06-14T09:26:39;12.13;;;11.30;;
8584;SDS011;7180;52.742;11.420;2023-06-14T09:29:05;11.13;;;10.43;;
8584;SDS011;7180;52.742;11.420;2023-06-14T09:31:30;11.00;;;10.30;;
8584;SDS011;7180;52.742;11.420;2023-06-14T09:33:57;10.97;;;10.27;;
8584;SDS011;7180;52.742;11.420;2023-06-14T09:36:24;10.80;;;10.23;;
8584;SDS011;7180;52.742;11.420;2023-06-14T09:38:57;11.23;;;10.60;;
8584;SDS011;7180;52.742;11.420;2023-06-14T09:41:33;10.93;;;10.17;;
8584;SDS011;7180;52.742;11.420;2023-06-14T09:44:00;11.37;;;10.47;;
8584;SDS011;7180;52.742;11.420;2023-06-14T09:46:27;10.80;;;10.20;;
8584;SDS011;7180;52.742;11.420;2023-06-14T09:48:54;11.30;;;10.50;;
8584;SDS011;7180;52.742;11.420;2023-06-14T09:51:19;11.53;;;10.77;;
8584;SDS011;7180;52.742;11.420;2023-06-14T09:53:48;11.57;;;10.77;;
8584;SDS011;7180;52.742;11.420;2023-06-14T09:56:15;11.27;;;10.37;;
8584;SDS011;7180;52.742;11.420;2023-06-14T09:58:48;11.00;;;10.30;;
8584;SDS011;7180;52.742;11.420;2023-06-14T10:01:18;11.00;;;10.30;;
8584;SDS011;7180;52.742;11.420;2023-06-14T10:03:44;11.13;;;10.50;;
8584;SDS011;7180;52.742;11.420;2023-06-14T10:06:10;10.70;;;10.00;;
8584;SDS011;7180;52.742;11.420;2023-06-14T10:08:36;11.57;;;10.80;;
8584;SDS011;7180;52.742;11.420;2023-06-14T10:11:04;11.20;;;10.30;;
8584;SDS011;7180;52.742;11.420;2023-06-14T10:13:30;11.07;;;10.37;;
8584;SDS011;7180;52.742;11.420;2023-06-14T10:16:09;10.87;;;10.27;;
8584;SDS011;7180;52.742;11.420;2023-06-14T10:24:05;10.63;;;9.60;;
8584;SDS011;7180;52.742;11.420;2023-06-14T10:26:33;10.20;;;9.60;;
8584;SDS011;7180;52.742;11.420;2023-06-14T10:29:00;10.07;;;9.47;;
8584;SDS011;7180;52.742;11.420;2023-06-14T10:31:42;8.87;;;8.37;;
8584;SDS011;7180;52.742;11.420;2023-06-14T10:34:09;11.37;;;10.57;;
8584;SDS011;7180;52.742;11.420;2023-06-14T10:36:34;10.20;;;9.60;;
8584;SDS011;7180;52.742;11.420;2023-06-14T10:41:36;11.20;;;10.50;;
8584;SDS011;7180;52.742;11.420;2023-06-14T10:46:40;9.60;;;8.90;;
8584;SDS011;7180;52.742;11.420;2023-06-14T10:49:10;10.10;;;9.35;;
8584;SDS011;7180;52.742;11.420;2023-06-14T10:51:40;9.97;;;9.37;;
8584;SDS011;7180;52.742;11.420;2023-06-14T10:54:11;9.85;;;9.15;;
8584;SDS011;7180;52.742;11.420;2023-06-14T10:56:37;11.18;;;10.38;;
8584;SDS011;7180;52.742;11.420;2023-06-14T10:59:03;11.68;;;10.70;;
8584;SDS011;7180;52.742;11.420;2023-06-14T11:04:06;10.77;;;9.93;;
8584;SDS011;7180;52.742;11.420;2023-06-14T11:10:07;9.80;;;9.07;;
8584;SDS011;7180;52.742;11.420;2023-06-14T11:12:49;10.43;;;9.65;;
8584;SDS011;7180;52.742;11.420;2023-06-14T11:15:18;10.88;;;9.88;;
8584;SDS011;7180;52.742;11.420;2023-06-14T11:17:53;10.10;;;9.40;;
8584;SDS011;7180;52.742;11.420;2023-06-14T11:20:18;10.23;;;9.63;;
8584;SDS011;7180;52.742;11.420;2023-06-14T11:22:44;9.90;;;9.30;;
8584;SDS011;7180;52.742;11.420;2023-06-14T11:25:13;10.00;;;9.23;;
8584;SDS011;7180;52.742;11.420;2023-06-14T11:27:41;10.20;;;9.40;;
8584;SDS011;7180;52.742;11.420;2023-06-14T11:30:07;9.93;;;9.15;;
8584;SDS011;7180;52.742;11.420;2023-06-14T11:32:34;10.13;;;9.52;;
8584;SDS011;7180;52.742;11.420;2023-06-14T11:35:00;10.85;;;9.85;;
8584;SDS011;7180;52.742;11.420;2023-06-14T11:37:29;10.00;;;9.40;;
8584;SDS011;7180;52.742;11.420;2023-06-14T11:39:56;10.70;;;10.00;;
8584;SDS011;7180;52.742;11.420;2023-06-14T11:42:22;11.13;;;10.32;;
8584;SDS011;7180;52.742;11.420;2023-06-14T11:44:49;10.00;;;9.32;;
8584;SDS011;7180;52.742;11.420;2023-06-14T11:47:14;10.70;;;10.00;;
8584;SDS011;7180;52.742;11.420;2023-06-14T11:49:39;10.60;;;10.00;;
8584;SDS011;7180;52.742;11.420;2023-06-14T11:52:05;11.15;;;10.38;;
8584;SDS011;7180;52.742;11.420;2023-06-14T11:54:31;10.07;;;9.50;;
8584;SDS011;7180;52.742;11.420;2023-06-14T11:56:57;11.15;;;10.23;;
8584;SDS011;7180;52.742;11.420;2023-06-14T11:59:23;10.55;;;9.85;;
8584;SDS011;7180;52.742;11.420;2023-06-14T12:01:49;9.65;;;8.95;;
8584;SDS011;7180;52.742;11.420;2023-06-14T12:04:22;9.32;;;8.80;;
8584;SDS011;7180;52.742;11.420;2023-06-14T12:06:48;10.30;;;9.50;;
8584;SDS011;7180;52.742;11.420;2023-06-14T12:09:18;10.05;;;9.52;;
8584;SDS011;7180;52.742;11.420;2023-06-14T12:11:43;9.95;;;9.10;;
8584;SDS011;7180;52.742;11.420;2023-06-14T12:14:09;10.68;;;9.88;;
8584;SDS011;7180;52.742;11.420;2023-06-14T12:16:36;9.77;;;9.07;;
8584;SDS011;7180;52.742;11.420;2023-06-14T12:21:37;10.32;;;9.48;;
8584;SDS011;7180;52.742;11.420;2023-06-14T12:24:05;9.40;;;8.80;;
8584;SDS011;7180;52.742;11.420;2023-06-14T12:26:32;10.13;;;9.43;;
8584;SDS011;7180;52.742;11.420;2023-06-14T12:28:57;10.02;;;9.32;;
8584;SDS011;7180;52.742;11.420;2023-06-14T12:31:23;10.40;;;9.70;;
8584;SDS011;7180;52.742;11.420;2023-06-14T12:33:49;9.98;;;9.43;;
8584;SDS011;7180;52.742;11.420;2023-06-14T12:36:14;11.10;;;10.27;;
8584;SDS011;7180;52.742;11.420;2023-06-14T12:38:40;10.70;;;10.00;;
8584;SDS011;7180;52.742;11.420;2023-06-14T12:41:06;9.73;;;9.10;;
8584;SDS011;7180;52.742;11.420;2023-06-14T12:43:32;9.77;;;9.07;;
8584;SDS011;7180;52.742;11.420;2023-06-14T12:45:58;10.40;;;9.50;;
8584;SDS011;7180;52.742;11.420;2023-06-14T12:48:24;10.35;;;9.35;;
8584;SDS011;7180;52.742;11.420;2023-06-14T12:50:49;10.18;;;9.52;;
8584;SDS011;7180;52.742;11.420;2023-06-14T12:53:14;10.02;;;9.18;;
8584;SDS011;7180;52.742;11.420;2023-06-14T12:55:40;10.10;;;9.20;;
8584;SDS011;7180;52.742;11.420;2023-06-14T12:58:05;10.52;;;9.82;;
8584;SDS011;7180;52.742;11.420;2023-06-14T13:00:31;10.30;;;9.63;;
8584;SDS011;7180;52.742;11.420;2023-06-14T13:02:57;10.47;;;9.87;;
8584;SDS011;7180;52.742;11.420;2023-06-14T13:05:22;10.70;;;9.83;;
8584;SDS011;7180;52.742;11.420;2023-06-14T13:07:48;10.30;;;9.50;;
8584;SDS011;7180;52.742;11.420;2023-06-14T13:10:13;10.15;;;9.23;;
8584;SDS011;7180;52.742;11.420;2023-06-14T13:12:38;9.77;;;9.00;;
8584;SDS011;7180;52.742;11.420;2023-06-14T13:15:03;10.38;;;9.35;;
8584;SDS011;7180;52.742;11.420;2023-06-14T13:17:29;9.73;;;9.23;;
8584;SDS011;7180;52.742;11.420;2023-06-14T13:19:54;10.07;;;9.52;;
8584;SDS011;7180;52.742;11.420;2023-06-14T13:22:23;9.75;;;9.25;;
8584;SDS011;7180;52.742;11.420;2023-06-14T13:24:48;10.02;;;9.38;;
8584;SDS011;7180;52.742;11.420;2023-06-14T13:27:14;10.20;;;9.60;;
8584;SDS011;7180;52.742;11.420;2023-06-14T13:29:40;10.40;;;9.80;;
8584;SDS011;7180;52.742;11.420;2023-06-14T13:32:05;10.85;;;10.10;;
8584;SDS011;7180;52.742;11.420;2023-06-14T13:34:31;9.07;;;8.50;;
8584;SDS011;7180;52.742;11.420;2023-06-14T13:36:56;9.43;;;8.73;;
8584;SDS011;7180;52.742;11.420;2023-06-14T13:39:23;9.32;;;8.70;;
8584;SDS011;7180;52.742;11.420;2023-06-14T13:41:48;9.85;;;9.15;;
8584;SDS011;7180;52.742;11.420;2023-06-14T13:44:14;9.73;;;9.00;;
8584;SDS011;7180;52.742;11.420;2023-06-14T13:46:42;9.40;;;8.90;;
8584;SDS011;7180;52.742;11.420;2023-06-14T13:49:08;9.40;;;8.80;;
8584;SDS011;7180;52.742;11.420;2023-06-14T13:51:33;9.70;;;9.10;;
8584;SDS011;7180;52.742;11.420;2023-06-14T13:53:59;9.45;;;8.85;;
8584;SDS011;7180;52.742;11.420;2023-06-14T13:56:25;9.50;;;8.90;;
8584;SDS011;7180;52.742;11.420;2023-06-14T13:58:50;8.43;;;7.93;;
8584;SDS011;7180;52.742;11.420;2023-06-14T14:01:16;9.18;;;8.57;;
8584;SDS011;7180;52.742;11.420;2023-06-14T14:03:50;8.63;;;7.97;;
8584;SDS011;7180;52.742;11.420;2023-06-14T14:06:15;9.10;;;8.50;;
8584;SDS011;7180;52.742;11.420;2023-06-14T14:08:41;8.68;;;8.00;;
8584;SDS011;7180;52.742;11.420;2023-06-14T14:11:07;8.30;;;7.70;;
8584;SDS011;7180;52.742;11.420;2023-06-14T14:13:33;9.65;;;8.68;;
8584;SDS011;7180;52.742;11.420;2023-06-14T14:16:01;8.95;;;8.45;;
8584;SDS011;7180;52.742;11.420;2023-06-14T14:18:26;9.70;;;9.00;;
8584;SDS011;7180;52.742;11.420;2023-06-14T14:20:51;9.13;;;8.63;;
8584;SDS011;7180;52.742;11.420;2023-06-14T14:23:17;9.05;;;8.43;;
8584;SDS011;7180;52.742;11.420;2023-06-14T14:25:42;9.15;;;8.45;;
8584;SDS011;7180;52.742;11.420;2023-06-14T14:28:07;8.90;;;8.27;;
8584;SDS011;7180;52.742;11.420;2023-06-14T14:30:33;8.82;;;8.32;;
8584;SDS011;7180;52.742;11.420;2023-06-14T14:32:58;9.38;;;8.60;;
8584;SDS011;7180;52.742;11.420;2023-06-14T14:35:23;8.73;;;8.30;;
8584;SDS011;7180;52.742;11.420;2023-06-14T14:37:51;9.23;;;8.60;;
8584;SDS011;7180;52.742;11.420;2023-06-14T14:40:16;9.13;;;8.52;;
8584;SDS011;7180;52.742;11.420;2023-06-14T14:42:42;8.43;;;7.90;;
8584;SDS011;7180;52.742;11.420;2023-06-14T14:45:07;8.80;;;8.20;;
8584;SDS011;7180;52.742;11.420;2023-06-14T14:47:33;9.82;;;8.30;;
8584;SDS011;7180;52.742;11.420;2023-06-14T14:49:58;8.63;;;8.05;;
8584;SDS011;7180;52.742;11.420;2023-06-14T14:52:23;7.63;;;7.22;;
8584;SDS011;7180;52.742;11.420;2023-06-14T14:54:49;8.30;;;7.70;;
8584;SDS011;7180;52.742;11.420;2023-06-14T14:57:14;8.23;;;7.53;;
8584;SDS011;7180;52.742;11.420;2023-06-14T14:59:40;8.15;;;7.65;;
8584;SDS011;7180;52.742;11.420;2023-06-14T15:02:05;8.40;;;7.90;;
8584;SDS011;7180;52.742;11.420;2023-06-14T15:04:31;8.18;;;7.45;;